Time;durP1;ratioP1;P1;durP2;ratioP2;P2;SDS_P1;SDS_P2;PMS_P1;PMS_P2;Temp;Humidity;BMP_temperature;BMP_pressure;BME280_temperature;BME280_humidity;BME280_pressure;Samples;Min_cycle;Max_cycle;Signal;HPM_P1;HPM_P2
2020/12/27 00:00:50;;;;;;;3.95;2.40;;;5.40;91.70;;;;;;2056047;28;20155;-81
2020/12/27 00:01:50;;;;;;;5.03;2.60;;;5.40;91.70;;;;;;2057319;28;20043;-81
2020/12/27 00:02:51;;;;;;;4.65;2.25;;;5.40;91.70;;;;;;2048699;28;20037;-81
2020/12/27 00:03:52;;;;;;;3.92;2.30;;;5.40;91.70;;;;;;2047965;28;20055;-81
2020/12/27 00:04:53;;;;;;;3.80;2.00;;;5.40;91.70;;;;;;2047911;28;20023;-81
2020/12/27 00:05:53;;;;;;;3.00;2.00;;;5.40;91.70;;;;;;2053615;28;20055;-80
2020/12/27 00:06:54;;;;;;;3.78;2.10;;;5.40;91.70;;;;;;2055121;29;20070;-80
2020/12/27 00:07:54;;;;;;;3.67;2.30;;;5.40;91.70;;;;;;2056045;28;20023;-80
2020/12/27 00:08:55;;;;;;;3.45;2.35;;;5.40;91.60;;;;;;2047593;28;20036;-80
2020/12/27 00:09:56;;;;;;;3.20;2.30;;;5.40;91.60;;;;;;2049708;29;20059;-81
2020/12/27 00:10:56;;;;;;;3.20;1.92;;;5.40;91.60;;;;;;2041539;28;20075;-81
2020/12/27 00:11:57;;;;;;;2.42;1.77;;;5.40;91.60;;;;;;2027937;29;20515;-81
2020/12/27 00:13:00;;;;;;;2.33;1.70;;;5.40;91.60;;;;;;2036400;29;20114;-81
2020/12/27 00:14:01;;;;;;;3.67;1.92;;;5.40;91.60;;;;;;2040836;29;20457;-81
2020/12/27 00:15:03;;;;;;;3.17;1.92;;;5.40;91.60;;;;;;2037260;29;20068;-81
2020/12/27 00:16:04;;;;;;;2.65;1.80;;;5.40;91.60;;;;;;2050604;28;20051;-81
2020/12/27 00:17:10;;;;;;;2.80;1.83;;;5.40;91.60;;;;;;2058800;28;20027;-81
2020/12/27 00:18:11;;;;;;;3.13;1.90;;;5.40;91.60;;;;;;2060034;28;20051;-80
2020/12/27 00:19:11;;;;;;;3.28;2.05;;;5.40;91.60;;;;;;2062029;28;20027;-81
2020/12/27 00:20:12;;;;;;;3.28;2.15;;;5.40;91.50;;;;;;2061337;28;20070;-81
2020/12/27 00:21:13;;;;;;;3.30;2.20;;;5.40;91.50;;;;;;2060703;28;20074;-81
2020/12/27 00:22:14;;;;;;;2.50;1.85;;;5.40;91.50;;;;;;2056844;28;20031;-81
2020/12/27 00:23:14;;;;;;;3.13;1.90;;;5.40;91.50;;;;;;2057320;28;20026;-81
2020/12/27 00:24:15;;;;;;;2.55;1.70;;;5.40;91.50;;;;;;2056621;28;20031;-81
2020/12/27 00:25:15;;;;;;;3.10;1.98;;;5.40;91.50;;;;;;2056751;28;20413;-81
2020/12/27 00:26:17;;;;;;;3.08;2.08;;;5.30;91.50;;;;;;2054887;28;20173;-80
2020/12/27 00:27:18;;;;;;;3.38;2.10;;;5.30;91.80;;;;;;2039438;28;20023;-81
2020/12/27 00:28:18;;;;;;;2.95;1.95;;;5.40;91.50;;;;;;2040887;28;20185;-81
2020/12/27 00:29:19;;;;;;;3.40;2.13;;;5.40;91.50;;;;;;2056655;28;20057;-81
2020/12/27 00:30:20;;;;;;;3.13;1.90;;;5.40;91.50;;;;;;2055577;28;20019;-81
2020/12/27 00:31:20;;;;;;;2.50;1.80;;;5.30;91.50;;;;;;2048205;29;20051;-80
2020/12/27 00:32:25;;;;;;;2.67;1.90;;;5.40;91.50;;;;;;2040499;29;20028;-80
2020/12/27 00:33:26;;;;;;;3.20;2.10;;;5.30;91.40;;;;;;2056510;28;20038;-80
2020/12/27 00:34:26;;;;;;;3.20;2.10;;;5.30;91.40;;;;;;2055795;28;20047;-80
2020/12/27 00:35:27;;;;;;;2.75;1.90;;;5.40;91.40;;;;;;2054108;28;20416;-80
2020/12/27 00:36:28;;;;;;;2.97;2.08;;;5.30;91.40;;;;;;2045922;28;20074;-81
2020/12/27 00:37:31;;;;;;;3.17;2.10;;;5.40;91.40;;;;;;2053027;29;20035;-80
2020/12/27 00:38:32;;;;;;;2.85;1.90;;;5.30;91.30;;;;;;2060637;28;20019;-81
2020/12/27 00:39:32;;;;;;;2.88;2.00;;;5.40;91.40;;;;;;2054504;28;20020;-80
2020/12/27 00:40:33;;;;;;;2.72;1.90;;;5.40;91.40;;;;;;2045641;29;20036;-79
2020/12/27 00:41:34;;;;;;;2.95;1.88;;;5.40;91.30;;;;;;2044762;29;20040;-80
2020/12/27 00:42:34;;;;;;;3.30;1.90;;;5.40;91.30;;;;;;2060454;28;20544;-80
2020/12/27 00:43:35;;;;;;;2.72;1.75;;;5.40;91.30;;;;;;2055776;28;20564;-80
2020/12/27 00:44:36;;;;;;;3.13;2.00;;;5.40;91.30;;;;;;2039914;29;20039;-80
2020/12/27 00:45:36;;;;;;;3.15;2.00;;;5.40;91.30;;;;;;2048489;28;20031;-80
2020/12/27 00:46:37;;;;;;;3.60;2.00;;;5.40;91.30;;;;;;2050407;28;20031;-80
2020/12/27 00:47:37;;;;;;;3.22;1.95;;;5.40;91.30;;;;;;2054302;28;20166;-81
2020/12/27 00:48:38;;;;;;;3.03;1.88;;;5.40;91.20;;;;;;2056815;28;20079;-80
2020/12/27 00:49:39;;;;;;;3.67;2.33;;;5.40;91.20;;;;;;2047758;28;20055;-80
2020/12/27 00:50:41;;;;;;;3.30;1.90;;;5.40;91.20;;;;;;2047002;28;20512;-80
2020/12/27 00:51:41;;;;;;;3.63;2.15;;;5.40;91.10;;;;;;2056182;28;20026;-81
2020/12/27 00:52:42;;;;;;;3.72;2.13;;;5.30;91.20;;;;;;2048168;28;20118;-80
2020/12/27 00:53:43;;;;;;;3.55;1.90;;;5.40;91.20;;;;;;2042291;28;20418;-80
2020/12/27 00:54:43;;;;;;;5.45;1.80;;;5.40;91.10;;;;;;2044257;28;20122;-80
2020/12/27 00:55:44;;;;;;;2.78;1.80;;;5.40;91.10;;;;;;2040465;29;20114;-80
2020/12/27 00:56:52;;;;;;;3.03;1.95;;;5.40;91.10;;;;;;2039797;29;20035;-81
2020/12/27 00:57:52;;;;;;;2.53;1.70;;;5.30;91.10;;;;;;2048473;28;20042;-80
2020/12/27 00:58:53;;;;;;;3.95;2.20;;;5.40;91.10;;;;;;2049485;28;20059;-80
2020/12/27 00:59:54;;;;;;;2.90;1.90;;;5.40;91.10;;;;;;2048201;28;20470;-80
2020/12/27 01:00:54;;;;;;;3.17;2.00;;;5.30;91.10;;;;;;2047867;29;20039;-80
2020/12/27 01:01:55;;;;;;;2.55;1.88;;;5.40;91.10;;;;;;2056327;28;20039;-80
2020/12/27 01:02:56;;;;;;;2.90;2.08;;;5.40;91.00;;;;;;2056126;28;20072;-81
2020/12/27 01:03:57;;;;;;;2.95;2.03;;;5.30;91.00;;;;;;2054668;28;20351;-80
2020/12/27 01:04:57;;;;;;;3.00;1.90;;;5.30;91.00;;;;;;2055820;28;20577;-80
2020/12/27 01:05:58;;;;;;;3.22;2.05;;;5.40;91.00;;;;;;2047878;28;20405;-81
2020/12/27 01:06:59;;;;;;;2.45;1.80;;;5.30;90.90;;;;;;2056208;28;20038;-80
2020/12/27 01:07:59;;;;;;;3.30;2.10;;;5.30;90.90;;;;;;2039756;29;20039;-80
2020/12/27 01:09:00;;;;;;;2.70;1.90;;;5.30;90.90;;;;;;2047925;28;20509;-80
2020/12/27 01:10:01;;;;;;;3.15;1.90;;;5.40;90.90;;;;;;2048804;28;20035;-80
2020/12/27 01:11:04;;;;;;;2.78;1.85;;;5.30;90.90;;;;;;2041817;29;20028;-81
2020/12/27 01:12:05;;;;;;;2.75;1.85;;;5.30;90.90;;;;;;2041969;29;20134;-80
2020/12/27 01:13:05;;;;;;;3.35;2.08;;;5.40;90.90;;;;;;2041672;29;20398;-81
2020/12/27 01:14:06;;;;;;;2.83;1.92;;;5.30;90.90;;;;;;2054820;28;20058;-80
2020/12/27 01:15:08;;;;;;;2.50;1.85;;;5.30;90.90;;;;;;2050919;28;20034;-81
2020/12/27 01:16:12;;;;;;;4.13;2.22;;;5.30;90.90;;;;;;2033655;29;20521;-81
2020/12/27 01:17:13;;;;;;;3.80;2.03;;;5.30;90.80;;;;;;2027805;28;20207;-80
2020/12/27 01:18:14;;;;;;;2.83;1.73;;;5.30;90.80;;;;;;2055550;28;20566;-80
2020/12/27 01:19:14;;;;;;;2.92;1.75;;;5.30;90.80;;;;;;2058243;28;20046;-81
2020/12/27 01:20:15;;;;;;;2.50;1.60;;;5.30;90.80;;;;;;2056105;28;20031;-81
2020/12/27 01:21:24;;;;;;;3.20;1.98;;;5.30;90.80;;;;;;2053641;28;20528;-81
2020/12/27 01:22:24;;;;;;;2.70;1.80;;;5.30;90.80;;;;;;2049460;28;20417;-80
2020/12/27 01:23:25;;;;;;;2.55;1.67;;;5.30;90.80;;;;;;2049672;29;20024;-81
2020/12/27 01:24:25;;;;;;;2.58;1.80;;;5.30;90.80;;;;;;2049683;28;20138;-81
2020/12/27 01:25:27;;;;;;;3.13;2.00;;;5.30;90.80;;;;;;2054970;28;20039;-81
2020/12/27 01:26:32;;;;;;;2.45;1.80;;;5.30;90.70;;;;;;2049568;28;20039;-81
2020/12/27 01:27:32;;;;;;;3.28;1.90;;;5.30;90.70;;;;;;2056716;28;20030;-81
2020/12/27 01:28:33;;;;;;;3.33;2.05;;;5.30;90.70;;;;;;2053660;28;20035;-81
2020/12/27 01:29:33;;;;;;;2.60;1.80;;;5.30;90.70;;;;;;2064658;28;20105;-81
2020/12/27 01:30:34;;;;;;;2.90;1.90;;;5.30;90.70;;;;;;2055713;28;20034;-81
2020/12/27 01:31:35;;;;;;;3.40;2.10;;;5.30;90.70;;;;;;2057352;28;20034;-81
2020/12/27 01:32:35;;;;;;;3.33;1.98;;;5.30;90.70;;;;;;2041584;29;20032;-81
2020/12/27 01:33:36;;;;;;;3.50;2.03;;;5.30;90.60;;;;;;2049190;28;20062;-81
2020/12/27 01:34:36;;;;;;;3.78;2.10;;;5.30;90.60;;;;;;2049468;28;20035;-81
2020/12/27 01:35:37;;;;;;;3.70;1.88;;;5.30;90.60;;;;;;2049548;28;20031;-81
2020/12/27 01:36:38;;;;;;;3.47;2.00;;;5.30;90.60;;;;;;2054547;28;20035;-81
2020/12/27 01:37:38;;;;;;;4.18;2.10;;;5.30;90.60;;;;;;2056388;28;20026;-81
2020/12/27 01:38:39;;;;;;;3.55;2.20;;;5.30;90.60;;;;;;2055988;28;20049;-82
2020/12/27 01:39:40;;;;;;;3.20;2.10;;;5.30;90.50;;;;;;2057318;28;20035;-80
2020/12/27 01:40:40;;;;;;;4.00;2.60;;;5.30;90.50;;;;;;2057366;28;20125;-80
2020/12/27 01:41:41;;;;;;;4.45;2.28;;;5.30;90.60;;;;;;2057289;28;20050;-81
2020/12/27 01:42:42;;;;;;;3.22;2.10;;;5.30;90.60;;;;;;2039111;29;20473;-80
2020/12/27 01:43:42;;;;;;;3.47;2.22;;;5.30;90.60;;;;;;2041551;29;20032;-81
2020/12/27 01:44:43;;;;;;;3.72;2.20;;;5.20;90.60;;;;;;2054845;28;20035;-81
2020/12/27 01:45:43;;;;;;;4.07;2.35;;;5.30;90.50;;;;;;2057033;28;20114;-81
2020/12/27 01:46:47;;;;;;;4.20;2.50;;;5.20;90.50;;;;;;2041460;29;20040;-81
2020/12/27 01:47:50;;;;;;;3.60;2.30;;;5.30;90.60;;;;;;2041950;29;20023;-80
2020/12/27 01:48:50;;;;;;;3.55;2.30;;;5.30;90.60;;;;;;2049905;28;20055;-80
2020/12/27 01:49:51;;;;;;;2.75;1.90;;;5.30;90.60;;;;;;2050141;28;20039;-81
2020/12/27 01:50:52;;;;;;;3.38;2.20;;;5.30;90.60;;;;;;2050004;28;20449;-80
2020/12/27 01:51:53;;;;;;;3.70;2.30;;;5.20;90.80;;;;;;2049375;29;20038;-80
2020/12/27 01:52:53;;;;;;;3.40;2.20;;;5.30;90.60;;;;;;2049450;29;20042;-80
2020/12/27 01:53:54;;;;;;;4.20;2.22;;;5.20;90.50;;;;;;2049886;28;20456;-80
2020/12/27 01:54:55;;;;;;;2.70;1.92;;;5.20;90.50;;;;;;2052093;28;20134;-80
2020/12/27 01:55:58;;;;;;;4.35;2.35;;;5.30;90.60;;;;;;2056157;28;20130;-80
2020/12/27 01:57:02;;;;;;;3.67;2.40;;;5.20;90.50;;;;;;2056331;28;20035;-80
2020/12/27 01:58:16;;;;;;;3.28;2.10;;;5.20;90.50;;;;;;2051289;28;20031;-80
2020/12/27 01:59:21;;;;;;;3.88;2.22;;;5.20;90.50;;;;;;2050104;28;20541;-80
2020/12/27 02:00:22;;;;;;;3.60;2.38;;;5.20;90.50;;;;;;2055003;28;20757;-80
2020/12/27 02:01:22;;;;;;;3.65;2.08;;;5.20;90.50;;;;;;2057131;28;20022;-81
2020/12/27 02:02:23;;;;;;;4.18;2.40;;;5.20;90.50;;;;;;2056718;28;20027;-82
2020/12/27 02:03:23;;;;;;;3.20;2.15;;;5.20;90.50;;;;;;2049170;28;20070;-80
2020/12/27 02:04:25;;;;;;;3.40;2.10;;;5.20;90.50;;;;;;2049330;29;20552;-81
2020/12/27 02:05:25;;;;;;;4.10;2.10;;;5.20;90.50;;;;;;2057089;28;20023;-81
2020/12/27 02:06:26;;;;;;;3.45;2.28;;;5.20;90.50;;;;;;2056010;28;20475;-81
2020/12/27 02:07:29;;;;;;;3.03;1.98;;;5.20;90.50;;;;;;2051931;28;20026;-81
2020/12/27 02:08:29;;;;;;;3.33;2.10;;;5.20;90.50;;;;;;2056927;28;20082;-80
2020/12/27 02:09:30;;;;;;;4.07;2.40;;;5.20;90.50;;;;;;2048714;28;20115;-81
2020/12/27 02:10:31;;;;;;;4.32;2.28;;;5.20;90.50;;;;;;2051319;28;20034;-81
2020/12/27 02:11:32;;;;;;;4.57;2.40;;;5.20;90.50;;;;;;2052896;28;20050;-81
2020/12/27 02:12:32;;;;;;;3.60;2.30;;;5.20;90.50;;;;;;2053031;28;20054;-81
2020/12/27 02:13:45;;;;;;;3.72;2.22;;;5.20;90.50;;;;;;2057264;28;20104;-81
2020/12/27 02:14:55;;;;;;;3.58;2.00;;;5.20;90.50;;;;;;2055423;28;20061;-81
2020/12/27 02:15:56;;;;;;;3.88;2.25;;;5.20;90.50;;;;;;2057754;28;20485;-81
2020/12/27 02:16:56;;;;;;;3.53;2.20;;;5.20;90.50;;;;;;2054198;28;20106;-81
2020/12/27 02:17:57;;;;;;;3.72;2.22;;;5.20;90.50;;;;;;2055592;28;20041;-81
2020/12/27 02:19:01;;;;;;;3.03;2.08;;;5.20;90.50;;;;;;2057774;28;20061;-81
2020/12/27 02:20:04;;;;;;;3.67;2.03;;;5.20;90.50;;;;;;2054205;28;20477;-81
2020/12/27 02:21:05;;;;;;;3.50;2.10;;;5.20;90.50;;;;;;2056180;28;20027;-81
2020/12/27 02:22:06;;;;;;;3.08;2.00;;;5.20;90.50;;;;;;2057572;28;20583;-81
2020/12/27 02:23:13;;;;;;;4.68;2.35;;;5.20;90.50;;;;;;2049119;28;20035;-81
2020/12/27 02:24:14;;;;;;;2.85;2.00;;;5.30;90.60;;;;;;2048128;28;20501;-81
2020/12/27 02:25:15;;;;;;;4.43;2.15;;;5.30;90.60;;;;;;2047753;28;20063;-81
2020/12/27 02:26:16;;;;;;;3.60;2.00;;;5.20;90.50;;;;;;2056520;28;20130;-81
2020/12/27 02:27:16;;;;;;;4.32;2.25;;;5.20;90.50;;;;;;2055865;28;20598;-81
2020/12/27 02:28:17;;;;;;;3.13;2.00;;;5.20;90.50;;;;;;2055102;28;20041;-80
2020/12/27 02:29:18;;;;;;;4.85;2.40;;;5.30;90.60;;;;;;2049708;28;20050;-81
2020/12/27 02:30:18;;;;;;;4.10;2.30;;;5.20;90.40;;;;;;2052930;28;20090;-81
2020/12/27 02:31:26;;;;;;;3.47;2.20;;;5.20;90.50;;;;;;2056879;28;20023;-80
2020/12/27 02:32:27;;;;;;;3.63;2.20;;;5.20;90.50;;;;;;2057684;28;20034;-81
2020/12/27 02:33:27;;;;;;;4.40;2.63;;;5.20;90.50;;;;;;2056862;28;20505;-81
2020/12/27 02:34:28;;;;;;;3.55;2.20;;;5.30;90.50;;;;;;2056577;28;20028;-81
2020/12/27 02:35:29;;;;;;;4.18;2.40;;;5.20;90.50;;;;;;2054272;28;20070;-81
2020/12/27 02:36:29;;;;;;;3.70;2.28;;;5.20;90.50;;;;;;2056348;28;20030;-80
2020/12/27 02:37:30;;;;;;;3.35;2.00;;;5.20;90.50;;;;;;2057112;28;20034;-81
2020/12/27 02:38:31;;;;;;;4.45;2.35;;;5.20;90.50;;;;;;2056649;28;20027;-81
2020/12/27 02:39:31;;;;;;;4.47;2.53;;;5.20;90.50;;;;;;2055166;28;20039;-80
2020/12/27 02:40:32;;;;;;;4.18;2.40;;;5.20;90.40;;;;;;2051898;28;20122;-81
2020/12/27 02:41:32;;;;;;;4.30;2.50;;;5.20;90.40;;;;;;2056993;28;20027;-81
2020/12/27 02:42:33;;;;;;;4.35;2.42;;;5.20;90.40;;;;;;2056489;28;20042;-81
2020/12/27 02:43:34;;;;;;;4.93;2.78;;;5.20;90.40;;;;;;2057030;28;20034;-81
2020/12/27 02:46:26;;;;;;;3.83;2.30;;;5.20;90.40;;;;;;2039452;29;20118;-81
2020/12/27 02:47:26;;;;;;;3.70;2.17;;;5.20;90.40;;;;;;2049799;28;20047;-81
2020/12/27 02:48:27;;;;;;;3.88;2.50;;;5.20;90.40;;;;;;2056362;28;20117;-81
2020/12/27 02:49:27;;;;;;;3.55;2.15;;;5.20;90.40;;;;;;2048379;29;20035;-81
2020/12/27 02:50:28;;;;;;;3.22;2.15;;;5.20;90.40;;;;;;2056183;28;20026;-81
2020/12/27 02:51:29;;;;;;;3.85;2.40;;;5.20;90.40;;;;;;2056663;28;20057;-81
2020/12/27 02:52:29;;;;;;;4.55;2.35;;;5.20;90.40;;;;;;2056765;28;20038;-81
2020/12/27 02:53:30;;;;;;;3.95;2.25;;;5.20;90.30;;;;;;2056975;28;20058;-81
2020/12/27 02:54:30;;;;;;;4.75;2.83;;;5.20;90.30;;;;;;2056645;28;20488;-81
2020/12/27 02:55:32;;;;;;;4.50;2.60;;;5.20;90.30;;;;;;2056217;28;20050;-81
2020/12/27 02:56:32;;;;;;;4.35;2.22;;;5.20;90.30;;;;;;2048747;28;20038;-81
2020/12/27 02:57:34;;;;;;;4.78;2.40;;;5.20;90.30;;;;;;2040877;29;20055;-81
2020/12/27 02:58:34;;;;;;;4.28;2.28;;;5.20;90.30;;;;;;2046881;28;20102;-81
2020/12/27 02:59:35;;;;;;;4.25;2.50;;;5.20;90.30;;;;;;2050680;28;20497;-81
2020/12/27 03:00:35;;;;;;;3.83;2.30;;;5.20;90.30;;;;;;2056866;28;20047;-81
2020/12/27 03:01:36;;;;;;;3.75;2.30;;;5.20;90.30;;;;;;2040815;29;20032;-81
2020/12/27 03:02:37;;;;;;;4.50;2.50;;;5.20;90.30;;;;;;2040047;29;20578;-81
2020/12/27 03:03:38;;;;;;;4.63;2.60;;;5.20;90.30;;;;;;2048686;28;20039;-81
2020/12/27 03:04:38;;;;;;;4.70;2.67;;;5.20;90.20;;;;;;2051173;28;20118;-81
2020/12/27 03:05:39;;;;;;;3.30;2.10;;;5.20;90.20;;;;;;2052457;28;20027;-80
2020/12/27 03:06:40;;;;;;;3.97;2.30;;;5.20;90.20;;;;;;2047104;29;20032;-81
2020/12/27 03:07:41;;;;;;;3.92;2.40;;;5.20;90.20;;;;;;2056299;28;20129;-80
2020/12/27 03:08:41;;;;;;;3.50;2.25;;;5.20;90.30;;;;;;2051742;28;20043;-81
2020/12/27 03:09:42;;;;;;;3.50;2.00;;;5.20;90.20;;;;;;2055274;28;20033;-81
2020/12/27 03:10:42;;;;;;;3.67;2.17;;;5.20;90.20;;;;;;2056623;28;20486;-80
2020/12/27 03:11:43;;;;;;;3.33;2.00;;;5.20;90.30;;;;;;2042770;29;20036;-81
2020/12/27 03:12:47;;;;;;;4.20;2.28;;;5.20;90.20;;;;;;2035977;29;20123;-81
2020/12/27 03:13:48;;;;;;;3.55;2.22;;;5.20;90.20;;;;;;2055749;28;20520;-81
2020/12/27 03:14:49;;;;;;;2.80;1.75;;;5.20;90.30;;;;;;2055488;28;20038;-81
2020/12/27 03:15:54;;;;;;;3.90;2.10;;;5.20;90.30;;;;;;2056336;28;20378;-81
2020/12/27 03:16:55;;;;;;;4.15;2.13;;;5.20;90.20;;;;;;2041273;29;20438;-81
2020/12/27 03:17:57;;;;;;;3.58;1.77;;;5.20;90.50;;;;;;2042019;28;20076;-81
2020/12/27 03:18:57;;;;;;;3.67;2.05;;;5.20;90.50;;;;;;2048076;28;20039;-81
2020/12/27 03:19:58;;;;;;;4.70;2.13;;;5.20;90.20;;;;;;2049092;28;20039;-81
2020/12/27 03:20:58;;;;;;;4.32;2.17;;;5.20;90.20;;;;;;2049823;28;20617;-81
2020/12/27 03:21:59;;;;;;;4.00;2.47;;;5.20;90.20;;;;;;2049521;28;20039;-80
2020/12/27 03:23:00;;;;;;;2.78;1.88;;;5.20;90.20;;;;;;2057102;28;20039;-81
2020/12/27 03:24:00;;;;;;;2.88;1.80;;;5.20;90.20;;;;;;2055825;28;20117;-81
2020/12/27 03:25:01;;;;;;;3.30;2.10;;;5.20;90.20;;;;;;2048653;29;20035;-81
2020/12/27 03:26:02;;;;;;;4.40;2.25;;;5.20;90.20;;;;;;2050129;28;20019;-81
2020/12/27 03:27:03;;;;;;;3.70;2.40;;;5.20;90.20;;;;;;2051681;28;20027;-81
2020/12/27 03:28:04;;;;;;;3.45;1.95;;;5.20;90.20;;;;;;2057302;28;20519;-81
2020/12/27 03:29:04;;;;;;;4.03;2.17;;;5.20;90.10;;;;;;2056603;28;20027;-81
2020/12/27 03:30:05;;;;;;;4.00;2.15;;;5.20;90.20;;;;;;2054867;28;20033;-81
2020/12/27 03:31:06;;;;;;;3.03;1.80;;;5.20;90.20;;;;;;2056674;28;20054;-81
2020/12/27 03:32:07;;;;;;;3.67;2.10;;;5.20;90.10;;;;;;2057052;28;20039;-81
2020/12/27 03:33:08;;;;;;;3.28;2.00;;;5.20;90.40;;;;;;2048482;28;20166;-81
2020/12/27 03:34:09;;;;;;;3.65;2.00;;;5.20;90.20;;;;;;2047988;29;20023;-81
2020/12/27 03:35:10;;;;;;;3.08;2.05;;;5.20;90.10;;;;;;2057138;28;20054;-81
2020/12/27 03:36:10;;;;;;;2.95;1.65;;;5.20;90.20;;;;;;2063677;28;20476;-81
2020/12/27 03:37:11;;;;;;;3.80;2.30;;;5.20;90.10;;;;;;2051412;28;20034;-81
2020/12/27 03:38:12;;;;;;;3.53;1.98;;;5.20;90.20;;;;;;2048670;28;20047;-81
2020/12/27 03:39:13;;;;;;;2.95;1.80;;;5.10;90.10;;;;;;2047842;28;20138;-81
2020/12/27 03:40:14;;;;;;;4.10;2.13;;;5.10;90.10;;;;;;2049817;28;20174;-81
2020/12/27 03:41:15;;;;;;;4.15;1.90;;;5.10;90.10;;;;;;2048341;28;20030;-81
2020/12/27 03:42:16;;;;;;;3.65;2.00;;;5.10;90.10;;;;;;2060250;28;20402;-81
2020/12/27 03:43:17;;;;;;;3.45;1.70;;;5.10;90.10;;;;;;2048366;28;20027;-81
2020/12/27 03:44:18;;;;;;;4.80;2.17;;;5.20;90.20;;;;;;2047305;28;20079;-81
2020/12/27 03:45:19;;;;;;;3.63;2.00;;;5.10;90.20;;;;;;2048240;29;20038;-80
2020/12/27 03:46:19;;;;;;;2.70;1.90;;;5.10;90.20;;;;;;2056071;28;20039;-80
2020/12/27 03:47:20;;;;;;;3.05;1.80;;;5.10;90.20;;;;;;2056685;28;20109;-81
2020/12/27 03:48:20;;;;;;;3.58;1.83;;;5.10;90.20;;;;;;2048189;29;20118;-80
2020/12/27 03:49:21;;;;;;;3.42;1.80;;;5.10;90.20;;;;;;2040497;29;20423;-81
2020/12/27 03:50:23;;;;;;;3.83;1.80;;;5.10;90.20;;;;;;2042361;29;20036;-81
2020/12/27 03:51:24;;;;;;;4.50;2.05;;;5.10;90.20;;;;;;2048384;28;20494;-81
2020/12/27 03:52:25;;;;;;;3.33;1.90;;;5.10;90.10;;;;;;2048702;28;20091;-80
2020/12/27 03:53:25;;;;;;;3.42;1.77;;;5.10;90.20;;;;;;2047794;28;20517;-80
2020/12/27 03:54:26;;;;;;;3.80;2.10;;;5.10;90.20;;;;;;2055822;28;20393;-81
2020/12/27 03:55:26;;;;;;;3.83;1.95;;;5.10;90.20;;;;;;2047778;29;20078;-80
2020/12/27 03:56:27;;;;;;;3.38;2.00;;;5.10;90.50;;;;;;2032592;29;20028;-81
2020/12/27 03:57:27;;;;;;;3.10;1.80;;;5.10;90.20;;;;;;2038578;29;20036;-81
2020/12/27 03:58:28;;;;;;;4.20;2.15;;;5.10;90.20;;;;;;2045488;29;20119;-81
2020/12/27 03:59:29;;;;;;;3.38;2.08;;;5.10;90.10;;;;;;2051452;28;20031;-81
2020/12/27 04:00:30;;;;;;;4.32;2.20;;;5.10;90.10;;;;;;2057012;28;20035;-81
2020/12/27 04:01:33;;;;;;;5.13;2.35;;;5.10;90.20;;;;;;2056240;28;20023;-81
2020/12/27 04:02:34;;;;;;;3.55;2.30;;;5.10;90.20;;;;;;2054787;28;20088;-81
2020/12/27 04:03:34;;;;;;;4.55;2.55;;;5.10;90.20;;;;;;2041567;29;20091;-81
2020/12/27 04:04:35;;;;;;;2.83;1.95;;;5.10;90.20;;;;;;2056508;28;20057;-81
2020/12/27 04:05:35;;;;;;;3.20;2.00;;;5.10;90.20;;;;;;2043444;29;20051;-80
2020/12/27 04:06:36;;;;;;;3.80;2.03;;;5.10;90.10;;;;;;2040306;29;20398;-81
2020/12/27 04:07:37;;;;;;;4.20;1.95;;;5.10;90.20;;;;;;2040264;29;20032;-81
2020/12/27 04:08:37;;;;;;;3.15;1.73;;;5.10;90.20;;;;;;2048506;28;20493;-81
2020/12/27 04:09:38;;;;;;;3.45;2.00;;;5.10;90.20;;;;;;2050015;28;20019;-81
2020/12/27 04:10:39;;;;;;;4.65;2.00;;;5.10;90.20;;;;;;2056417;28;20062;-81
2020/12/27 04:11:39;;;;;;;3.70;2.17;;;5.10;90.20;;;;;;2049604;28;20424;-81
2020/12/27 04:12:40;;;;;;;3.13;1.95;;;5.10;90.20;;;;;;2048303;29;20504;-81
2020/12/27 04:13:40;;;;;;;4.65;2.20;;;5.10;90.20;;;;;;2049510;28;20045;-81
2020/12/27 04:14:41;;;;;;;4.68;2.15;;;5.10;90.20;;;;;;2051871;28;20103;-81
2020/12/27 04:15:42;;;;;;;3.53;2.00;;;5.10;90.20;;;;;;2052965;28;20063;-81
2020/12/27 04:16:42;;;;;;;3.45;1.95;;;5.10;90.20;;;;;;2048353;28;20036;-81
2020/12/27 04:17:43;;;;;;;4.00;2.13;;;5.10;90.20;;;;;;2056546;28;20035;-81
2020/12/27 04:18:43;;;;;;;3.80;2.10;;;5.10;90.20;;;;;;2053009;28;20031;-81
2020/12/27 04:19:44;;;;;;;4.13;2.10;;;5.10;90.20;;;;;;2064397;28;20034;-81
2020/12/27 04:20:45;;;;;;;5.03;2.03;;;5.10;90.20;;;;;;2055763;28;20050;-81
2020/12/27 04:21:46;;;;;;;3.90;2.00;;;5.10;90.20;;;;;;2048350;29;20047;-81
2020/12/27 04:22:50;;;;;;;3.28;2.00;;;5.10;90.30;;;;;;2047970;28;20592;-81
2020/12/27 04:23:51;;;;;;;3.60;2.17;;;5.10;90.30;;;;;;2052182;28;20503;-81
2020/12/27 04:24:52;;;;;;;3.33;2.08;;;5.10;90.30;;;;;;2056634;28;20081;-81
2020/12/27 04:25:52;;;;;;;3.92;2.17;;;5.10;90.60;;;;;;2056510;28;20133;-81
2020/12/27 04:26:53;;;;;;;3.90;2.30;;;5.10;90.30;;;;;;2056550;28;20070;-81
2020/12/27 04:27:54;;;;;;;3.70;2.00;;;5.10;90.60;;;;;;2058971;28;20038;-82
2020/12/27 04:28:54;;;;;;;2.92;1.77;;;5.00;90.30;;;;;;2057420;28;20098;-81
2020/12/27 04:29:55;;;;;;;3.88;2.17;;;5.10;90.30;;;;;;2070550;28;20023;-81
2020/12/27 04:30:55;;;;;;;3.60;2.00;;;5.00;90.30;;;;;;2062455;28;20074;-80
2020/12/27 04:31:56;;;;;;;3.85;1.95;;;5.10;90.30;;;;;;2060500;28;20092;-80
2020/12/27 04:32:57;;;;;;;3.30;1.90;;;5.10;90.30;;;;;;2044802;29;20106;-80
2020/12/27 04:33:58;;;;;;;3.38;1.80;;;5.10;90.30;;;;;;2048927;29;20352;-80
2020/12/27 04:34:58;;;;;;;3.88;2.28;;;5.10;90.30;;;;;;2041866;28;20027;-80
2020/12/27 04:35:59;;;;;;;3.03;1.80;;;5.10;90.30;;;;;;2048712;28;20074;-81
2020/12/27 04:37:00;;;;;;;3.17;1.90;;;5.10;90.30;;;;;;2047743;28;20491;-80
2020/12/27 04:38:00;;;;;;;3.53;2.13;;;5.10;90.30;;;;;;2039376;29;20030;-80
2020/12/27 04:39:01;;;;;;;3.00;2.03;;;5.10;90.30;;;;;;2043966;29;20055;-80
2020/12/27 04:40:03;;;;;;;3.40;1.60;;;5.10;90.30;;;;;;2046206;28;20118;-81
2020/12/27 04:41:03;;;;;;;3.03;1.80;;;5.10;90.30;;;;;;2038881;29;20052;-80
2020/12/27 04:42:04;;;;;;;2.92;1.88;;;5.10;90.20;;;;;;2051084;28;20126;-80
2020/12/27 04:43:05;;;;;;;2.97;1.90;;;5.10;90.20;;;;;;2060875;28;20022;-81
2020/12/27 04:44:07;;;;;;;3.25;2.00;;;5.10;90.20;;;;;;2065290;28;20035;-81
2020/12/27 04:45:09;;;;;;;2.70;1.60;;;5.20;90.20;;;;;;2045822;28;20024;-80
2020/12/27 04:46:11;;;;;;;2.80;1.70;;;5.20;90.20;;;;;;2041925;29;20032;-80
2020/12/27 04:47:13;;;;;;;2.30;1.48;;;5.20;90.20;;;;;;2050551;28;20023;-80
2020/12/27 04:48:16;;;;;;;3.75;2.00;;;5.20;90.20;;;;;;2056036;28;20074;-80
2020/12/27 04:49:17;;;;;;;3.53;1.77;;;5.20;90.20;;;;;;2056256;28;20039;-80
2020/12/27 04:50:18;;;;;;;5.93;1.73;;;5.20;90.20;;;;;;2057483;28;20078;-80
2020/12/27 04:51:19;;;;;;;2.67;1.40;;;5.20;90.10;;;;;;2057695;28;20037;-81
2020/12/27 04:52:21;;;;;;;2.60;1.50;;;5.20;90.10;;;;;;2058494;28;20100;-81
2020/12/27 04:53:22;;;;;;;2.92;1.42;;;5.20;90.10;;;;;;2058377;28;20506;-81
2020/12/27 04:54:26;;;;;;;2.63;1.48;;;5.20;90.40;;;;;;2057881;28;20152;-81
2020/12/27 04:55:27;;;;;;;2.35;1.52;;;5.20;90.20;;;;;;2049286;28;20490;-81
2020/12/27 04:56:28;;;;;;;2.63;1.63;;;5.20;90.20;;;;;;2035538;29;20043;-81
2020/12/27 04:57:29;;;;;;;2.53;1.48;;;5.20;90.20;;;;;;2034196;29;20123;-81
2020/12/27 04:58:30;;;;;;;3.33;1.50;;;5.30;90.20;;;;;;2055520;28;20030;-80
2020/12/27 04:59:30;;;;;;;2.50;1.45;;;5.20;90.10;;;;;;2042588;29;20035;-80
2020/12/27 05:00:31;;;;;;;2.72;1.45;;;5.20;90.10;;;;;;2052086;29;20051;-81
2020/12/27 05:01:32;;;;;;;1.85;1.30;;;5.30;90.10;;;;;;2056230;28;20152;-80
2020/12/27 05:02:33;;;;;;;3.08;1.27;;;5.20;90.10;;;;;;2060345;28;20034;-81
2020/12/27 05:03:33;;;;;;;2.42;1.30;;;5.30;90.20;;;;;;2054700;28;20130;-80
2020/12/27 05:04:37;;;;;;;1.55;1.20;;;5.30;90.20;;;;;;2058446;28;20038;-80
2020/12/27 05:05:38;;;;;;;1.90;1.20;;;5.30;90.20;;;;;;2050779;28;20023;-80
2020/12/27 05:06:39;;;;;;;2.58;1.42;;;5.30;90.20;;;;;;2049521;28;20037;-81
2020/12/27 05:07:45;;;;;;;1.95;1.20;;;5.30;90.20;;;;;;2050368;29;20450;-81
2020/12/27 05:08:46;;;;;;;2.20;1.20;;;5.20;90.30;;;;;;2053789;28;20077;-80
2020/12/27 05:09:51;;;;;;;1.65;1.00;;;5.30;90.30;;;;;;2055433;28;20110;-80
2020/12/27 05:10:53;;;;;;;2.60;1.40;;;5.30;90.30;;;;;;2058267;28;20063;-80
2020/12/27 05:11:55;;;;;;;2.08;1.23;;;5.30;90.30;;;;;;2065563;28;20054;-80
2020/12/27 05:12:55;;;;;;;2.30;1.20;;;5.20;90.30;;;;;;2057572;28;20039;-81
2020/12/27 05:13:56;;;;;;;2.17;1.17;;;5.20;90.30;;;;;;2048885;29;20035;-80
2020/12/27 05:14:57;;;;;;;1.80;1.17;;;5.20;90.60;;;;;;2048781;28;20083;-80
2020/12/27 05:16:04;;;;;;;1.35;0.93;;;5.20;90.30;;;;;;2035283;29;20024;-80
2020/12/27 05:17:08;;;;;;;2.00;1.00;;;5.20;90.30;;;;;;2042627;29;20032;-80
2020/12/27 05:18:11;;;;;;;1.60;1.00;;;5.20;90.40;;;;;;2049525;28;20050;-80
2020/12/27 05:19:16;;;;;;;2.15;1.23;;;5.20;90.40;;;;;;2056654;28;20030;-80
2020/12/27 05:20:18;;;;;;;1.98;1.00;;;5.20;90.40;;;;;;2057356;28;20031;-80
2020/12/27 05:21:23;;;;;;;1.77;0.95;;;5.20;90.40;;;;;;2057662;28;20600;-80
2020/12/27 05:22:25;;;;;;;1.17;0.80;;;5.20;90.40;;;;;;2057158;28;20066;-80
2020/12/27 05:23:28;;;;;;;1.95;1.00;;;5.20;90.40;;;;;;2049175;28;20034;-80
2020/12/27 05:24:31;;;;;;;1.27;0.80;;;5.20;90.50;;;;;;2045855;28;20027;-80
2020/12/27 05:25:33;;;;;;;1.63;0.85;;;5.20;90.50;;;;;;2056752;28;20114;-80